createdAt,value
2019-02-22T00:00:54.209Z,5.20
2019-02-22T00:03:20.975Z,5.20
2019-02-22T00:05:47.554Z,5.20
2019-02-22T00:08:14.083Z,5.10
2019-02-22T00:10:40.625Z,5.10
2019-02-22T00:13:07.171Z,5.20
2019-02-22T00:15:36.222Z,5.10
2019-02-22T00:18:02.079Z,5.10
2019-02-22T00:20:28.637Z,5.10
2019-02-22T00:22:55.182Z,5.20
2019-02-22T00:25:21.710Z,5.20
2019-02-22T00:27:49.377Z,5.20
2019-02-22T00:30:15.902Z,5.10
2019-02-22T00:32:42.699Z,5.00
2019-02-22T00:35:10.285Z,4.90
2019-02-22T00:37:36.816Z,4.90
2019-02-22T00:40:04.062Z,4.80
2019-02-22T00:42:30.604Z,4.60
2019-02-22T00:44:57.125Z,4.50
2019-02-22T00:47:23.701Z,4.50
2019-02-22T00:49:50.267Z,4.40
2019-02-22T00:52:16.802Z,4.30
2019-02-22T00:54:43.347Z,4.30
2019-02-22T00:57:09.872Z,4.30
2019-02-22T00:59:36.396Z,4.20
2019-02-22T01:02:02.932Z,4.10
2019-02-22T01:04:29.586Z,4.00
2019-02-22T01:06:56.136Z,3.70
2019-02-22T01:09:22.690Z,3.90
2019-02-22T01:11:49.238Z,3.70
2019-02-22T01:14:15.767Z,3.60
2019-02-22T01:16:42.313Z,3.80
2019-02-22T01:19:08.854Z,4.10
2019-02-22T01:21:36.442Z,4.00
2019-02-22T01:24:02.992Z,3.80
2019-02-22T01:26:29.548Z,3.80
2019-02-22T01:28:56.069Z,3.90
2019-02-22T01:31:23.450Z,3.80
2019-02-22T01:33:49.984Z,3.70
2019-02-22T01:36:16.545Z,3.70
2019-02-22T01:38:43.090Z,3.60
2019-02-22T01:41:09.644Z,3.70
2019-02-22T01:43:36.176Z,3.40
2019-02-22T01:46:02.720Z,3.50
2019-02-22T01:48:29.246Z,3.70
2019-02-22T01:50:55.791Z,3.70
2019-02-22T01:53:22.360Z,3.70
2019-02-22T01:55:48.913Z,3.60
2019-02-22T01:58:15.438Z,3.40
2019-02-22T02:00:42.027Z,3.40
2019-02-22T02:03:08.569Z,3.40
2019-02-22T02:05:35.102Z,3.40
2019-02-22T02:08:01.655Z,3.50
2019-02-22T02:10:28.286Z,3.50
2019-02-22T02:12:54.833Z,3.40
2019-02-22T02:15:22.382Z,3.40
2019-02-22T02:17:48.969Z,3.30
2019-02-22T02:20:15.647Z,3.20
2019-02-22T02:22:42.152Z,3.30
2019-02-22T02:25:08.944Z,3.20
2019-02-22T02:27:35.478Z,2.80
2019-02-22T02:30:03.298Z,2.90
2019-02-22T02:32:30.055Z,2.80
2019-02-22T02:34:56.571Z,2.50
2019-02-22T02:37:23.115Z,2.30
2019-02-22T02:39:49.663Z,2.40
2019-02-22T02:42:16.223Z,2.60
2019-02-22T02:44:42.817Z,2.60
2019-02-22T02:47:10.327Z,2.40
2019-02-22T02:49:36.839Z,2.40
2019-02-22T02:52:03.468Z,2.50
2019-02-22T02:54:30.025Z,2.60
2019-02-22T02:56:56.719Z,2.70
2019-02-22T02:59:23.268Z,2.60
2019-02-22T03:01:49.833Z,2.60
2019-02-22T03:04:16.354Z,2.60
2019-02-22T03:06:47.948Z,2.60
2019-02-22T03:09:14.515Z,2.60
2019-02-22T03:11:41.086Z,2.60
2019-02-22T03:14:07.645Z,2.50
2019-02-22T03:16:34.214Z,2.30
2019-02-22T03:19:00.733Z,2.40
2019-02-22T03:21:27.269Z,2.30
2019-02-22T03:23:53.810Z,2.10
2019-02-22T03:26:20.343Z,2.30
2019-02-22T03:28:46.921Z,2.40
2019-02-22T03:31:13.452Z,2.40
2019-02-22T03:33:40.043Z,2.40
2019-02-22T03:36:06.592Z,2.10
2019-02-22T03:38:33.130Z,2.00
2019-02-22T03:40:59.656Z,2.00
2019-02-22T03:43:26.311Z,2.20
2019-02-22T03:45:52.854Z,2.10
2019-02-22T03:48:19.408Z,2.10
2019-02-22T03:50:47.275Z,2.10
2019-02-22T03:53:18.745Z,1.90
2019-02-22T03:55:45.277Z,1.70
2019-02-22T03:58:11.814Z,2.00
2019-02-22T04:00:38.388Z,2.00
2019-02-22T04:03:04.927Z,1.80
2019-02-22T04:05:31.466Z,2.00
2019-02-22T04:07:58.003Z,2.10
2019-02-22T04:10:24.525Z,2.20
2019-02-22T04:12:51.029Z,2.10
2019-02-22T04:15:17.591Z,2.00
2019-02-22T04:17:44.145Z,2.10
2019-02-22T04:20:10.711Z,2.10
2019-02-22T04:22:37.264Z,1.90
2019-02-22T04:25:04.698Z,1.80
2019-02-22T04:27:31.345Z,1.60
2019-02-22T04:29:58.071Z,1.50
2019-02-22T04:32:24.646Z,1.40
2019-02-22T04:34:51.249Z,1.30
2019-02-22T04:37:17.898Z,1.40
2019-02-22T04:39:44.448Z,1.50
2019-02-22T04:42:10.989Z,1.30
2019-02-22T04:44:37.545Z,1.40
2019-02-22T04:47:04.102Z,1.30
2019-02-22T04:49:30.669Z,1.10
2019-02-22T04:51:57.209Z,1.10
2019-02-22T04:54:23.752Z,1.20
2019-02-22T04:56:50.373Z,1.20
2019-02-22T04:59:16.906Z,1.20
2019-02-22T05:01:43.463Z,1.30
2019-02-22T05:04:10.019Z,1.30
2019-02-22T05:06:36.552Z,1.30
2019-02-22T05:09:03.997Z,1.30
2019-02-22T05:11:31.623Z,1.30
2019-02-22T05:13:58.181Z,1.20
2019-02-22T05:16:24.707Z,1.30
2019-02-22T05:18:51.253Z,0.90
2019-02-22T05:21:17.815Z,0.90
2019-02-22T05:23:44.345Z,1.10
2019-02-22T05:26:10.889Z,1.20
2019-02-22T05:28:37.443Z,1.40
2019-02-22T05:31:03.973Z,1.30
2019-02-22T05:33:30.521Z,1.50
2019-02-22T05:35:57.120Z,1.50
2019-02-22T05:38:23.643Z,1.30
2019-02-22T05:40:50.202Z,1.30
2019-02-22T05:43:16.750Z,1.40
2019-02-22T05:45:43.308Z,1.50
2019-02-22T05:48:10.861Z,1.40
2019-02-22T05:50:37.402Z,1.50
2019-02-22T05:53:03.926Z,1.60
2019-02-22T05:55:30.464Z,1.70
2019-02-22T05:57:57.009Z,1.70
2019-02-22T06:00:24.561Z,1.70
2019-02-22T06:02:51.113Z,1.80
2019-02-22T06:05:17.673Z,1.80
2019-02-22T06:07:44.221Z,1.80
2019-02-22T06:10:10.750Z,1.70
2019-02-22T06:12:37.305Z,1.40
2019-02-22T06:15:05.148Z,1.30
2019-02-22T06:17:31.712Z,1.40
2019-02-22T06:19:58.256Z,1.30
2019-02-22T06:22:29.603Z,1.30
2019-02-22T06:24:53.151Z,1.30
2019-02-22T06:27:19.707Z,1.50
2019-02-22T06:29:46.267Z,1.40
2019-02-22T06:32:12.839Z,1.40
2019-02-22T06:34:39.428Z,1.30
2019-02-22T06:37:06.793Z,1.60
2019-02-22T06:39:33.375Z,1.60
2019-02-22T06:41:59.908Z,1.90
2019-02-22T06:44:26.423Z,2.00
2019-02-22T06:46:52.973Z,2.10
2019-02-22T06:49:19.505Z,2.20
2019-02-22T06:51:46.048Z,2.30
2019-02-22T06:54:12.597Z,2.30
2019-02-22T06:56:39.161Z,2.40
2019-02-22T06:59:05.686Z,2.20
2019-02-22T07:01:32.240Z,2.40
2019-02-22T07:03:58.787Z,2.50
2019-02-22T07:06:25.347Z,2.70
2019-02-22T07:08:51.895Z,2.70
2019-02-22T07:11:23.162Z,2.90
2019-02-22T07:13:49.718Z,3.00
2019-02-22T07:16:16.390Z,3.10
2019-02-22T07:18:42.933Z,3.30
2019-02-22T07:21:09.459Z,3.30
2019-02-22T07:23:35.993Z,3.40
2019-02-22T07:26:02.539Z,3.40
2019-02-22T07:28:29.087Z,3.40
2019-02-22T07:30:56.651Z,3.40
2019-02-22T07:33:23.197Z,3.40
2019-02-22T07:35:49.727Z,3.40
2019-02-22T07:38:16.297Z,3.30
2019-02-22T07:40:42.837Z,3.50
2019-02-22T07:43:09.456Z,3.40
2019-02-22T07:45:36.003Z,3.30
2019-02-22T07:48:02.553Z,3.30
2019-02-22T07:50:29.070Z,3.30
2019-02-22T07:52:55.614Z,3.50
2019-02-22T07:55:22.155Z,3.70
2019-02-22T07:57:48.709Z,3.70
2019-02-22T08:00:15.463Z,3.80
2019-02-22T08:02:42.011Z,3.90
2019-02-22T08:05:09.280Z,3.90
2019-02-22T08:07:35.879Z,4.10
2019-02-22T08:10:03.035Z,4.30
2019-02-22T08:12:29.572Z,4.50
2019-02-22T08:14:56.155Z,4.60
2019-02-22T08:17:22.713Z,4.50
2019-02-22T08:19:49.327Z,4.60
2019-02-22T08:22:15.877Z,4.80
2019-02-22T08:24:42.513Z,4.90
2019-02-22T08:27:09.063Z,5.20
2019-02-22T08:29:38.327Z,5.40
2019-02-22T08:32:04.978Z,5.60
2019-02-22T08:34:31.518Z,5.80
2019-02-22T08:36:58.167Z,6.10
2019-02-22T08:39:24.745Z,6.30
2019-02-22T08:41:51.918Z,6.40
2019-02-22T08:44:18.468Z,6.40
2019-02-22T08:46:45.166Z,6.30
2019-02-22T08:49:12.680Z,6.00
2019-02-22T08:51:39.234Z,6.10
2019-02-22T08:54:05.792Z,6.10
2019-02-22T08:56:32.333Z,6.20
2019-02-22T08:58:58.966Z,6.30
2019-02-22T09:01:25.611Z,6.50
2019-02-22T09:03:52.138Z,6.50
2019-02-22T09:06:18.681Z,6.50
2019-02-22T09:08:45.325Z,6.60
2019-02-22T09:11:11.856Z,6.90
2019-02-22T09:13:43.468Z,7.10
2019-02-22T09:16:06.743Z,7.50
2019-02-22T09:18:33.332Z,7.80
2019-02-22T09:20:59.898Z,8.00
2019-02-22T09:23:26.459Z,8.00
2019-02-22T09:25:52.990Z,8.10
2019-02-22T09:28:19.554Z,8.10
2019-02-22T09:30:46.144Z,8.30
2019-02-22T09:33:12.693Z,8.50
2019-02-22T09:35:39.425Z,8.70
2019-02-22T09:38:06.082Z,9.10
2019-02-22T09:40:32.654Z,9.40
2019-02-22T09:42:59.294Z,9.60
2019-02-22T09:45:25.844Z,9.60
2019-02-22T09:47:52.371Z,9.80
2019-02-22T09:50:18.967Z,10.00
2019-02-22T09:52:45.527Z,9.80
2019-02-22T09:55:12.090Z,9.90
2019-02-22T09:57:38.751Z,10.10
2019-02-22T10:00:10.407Z,10.60
2019-02-22T10:02:37.032Z,10.70
2019-02-22T10:05:05.477Z,11.40
2019-02-22T10:07:32.147Z,11.60
2019-02-22T10:09:58.691Z,12.20
2019-02-22T10:12:25.266Z,12.30
2019-02-22T10:14:51.824Z,12.40
2019-02-22T10:17:19.358Z,12.30
2019-02-22T10:19:45.990Z,12.40
2019-02-22T10:22:12.568Z,12.10
2019-02-22T10:24:39.102Z,11.90
2019-02-22T10:27:05.643Z,11.70
2019-02-22T10:29:32.202Z,11.80
2019-02-22T10:31:58.717Z,11.70
2019-02-22T10:34:25.255Z,11.60
2019-02-22T10:36:51.794Z,11.80
2019-02-22T10:39:18.327Z,12.10
2019-02-22T10:41:44.879Z,12.20
2019-02-22T10:44:17.710Z,12.30
2019-02-22T10:46:39.738Z,12.40
2019-02-22T10:49:06.254Z,12.30
2019-02-22T10:51:34.218Z,12.30
2019-02-22T10:54:00.805Z,12.10
2019-02-22T10:56:28.345Z,12.20
2019-02-22T10:58:55.111Z,11.90
2019-02-22T11:01:21.640Z,11.80
2019-02-22T11:03:48.192Z,11.90
2019-02-22T11:06:14.728Z,11.50
2019-02-22T11:08:41.272Z,11.10
2019-02-22T11:11:07.805Z,11.00
2019-02-22T11:13:34.485Z,11.30
2019-02-22T11:16:01.045Z,11.30
2019-02-22T11:18:27.596Z,11.10
2019-02-22T11:20:54.163Z,11.00
2019-02-22T11:23:20.702Z,11.20
2019-02-22T11:25:47.321Z,11.20
2019-02-22T11:28:13.886Z,11.20
2019-02-22T11:30:40.435Z,11.20
2019-02-22T11:33:06.988Z,11.30
2019-02-22T11:35:33.647Z,11.20
2019-02-22T11:38:00.326Z,11.30
2019-02-22T11:40:26.810Z,11.50
2019-02-22T11:42:53.499Z,11.50
2019-02-22T11:45:20.060Z,11.70
2019-02-22T11:47:46.613Z,11.80
2019-02-22T11:50:13.180Z,11.90
2019-02-22T11:52:39.801Z,12.10
2019-02-22T11:55:07.356Z,12.10
2019-02-22T11:57:33.937Z,12.40
2019-02-22T12:00:00.458Z,12.70
2019-02-22T12:02:26.990Z,13.10
2019-02-22T12:04:53.738Z,14.00
2019-02-22T12:07:20.408Z,16.10
2019-02-22T12:09:47.027Z,16.30
2019-02-22T12:12:15.475Z,15.20
2019-02-22T12:14:51.144Z,17.00
2019-02-22T12:17:10.453Z,17.90
2019-02-22T12:19:37.805Z,18.50
2019-02-22T12:22:04.339Z,17.50
2019-02-22T12:24:30.880Z,18.60
2019-02-22T12:26:57.435Z,19.60
2019-02-22T12:29:23.989Z,23.10
2019-02-22T12:31:50.537Z,24.40
2019-02-22T12:34:17.086Z,20.60
2019-02-22T12:36:43.633Z,20.40
2019-02-22T12:39:10.182Z,19.20
2019-02-22T12:41:37.528Z,18.90
2019-02-22T12:44:04.127Z,20.40
2019-02-22T12:46:30.697Z,19.50
2019-02-22T12:48:57.265Z,22.00
2019-02-22T12:51:23.809Z,21.40
2019-02-22T12:53:50.348Z,24.60
2019-02-22T12:56:16.888Z,27.00
2019-02-22T12:58:43.433Z,25.00
2019-02-22T13:01:09.999Z,25.60
2019-02-22T13:03:37.743Z,26.20
2019-02-22T13:06:04.274Z,25.10
2019-02-22T13:08:30.810Z,29.50
2019-02-22T13:10:57.372Z,26.70
2019-02-22T13:13:23.919Z,32.00
2019-02-22T13:15:50.465Z,30.00
2019-02-22T13:18:17.028Z,30.50
2019-02-22T13:20:43.594Z,26.20
2019-02-22T13:23:10.119Z,27.20
2019-02-22T13:25:36.677Z,25.40
2019-02-22T13:28:03.205Z,27.50
2019-02-22T13:30:29.745Z,24.60
2019-02-22T13:32:56.314Z,23.20
2019-02-22T13:35:22.878Z,21.50
2019-02-22T13:37:49.417Z,19.90
2019-02-22T13:40:16.682Z,21.60
2019-02-22T13:42:43.237Z,23.90
2019-02-22T13:45:10.323Z,27.80
2019-02-22T13:47:36.956Z,28.30
2019-02-22T13:50:07.330Z,29.60
2019-02-22T13:52:33.907Z,32.10
2019-02-22T13:55:00.462Z,30.40
2019-02-22T13:57:30.310Z,25.80
2019-02-22T13:59:56.441Z,27.80
2019-02-22T14:02:23.003Z,25.00
2019-02-22T14:04:49.587Z,22.40
2019-02-22T14:07:16.158Z,22.90
2019-02-22T14:09:42.711Z,23.00
2019-02-22T14:12:09.250Z,27.50
2019-02-22T14:14:35.806Z,25.80
2019-02-22T14:17:02.396Z,22.90
2019-02-22T14:19:28.959Z,21.30
2019-02-22T14:21:55.630Z,19.80
2019-02-22T14:24:22.199Z,23.00
2019-02-22T14:26:48.715Z,21.60
2019-02-22T14:29:15.288Z,19.50
2019-02-22T14:31:41.820Z,18.80
2019-02-22T14:34:08.363Z,20.50
2019-02-22T14:36:34.967Z,21.70
2019-02-22T14:39:01.641Z,19.90
2019-02-22T14:41:30.070Z,19.00
2019-02-22T14:43:56.633Z,19.00
2019-02-22T14:46:25.912Z,22.00
2019-02-22T14:48:51.576Z,20.60
2019-02-22T14:51:18.128Z,19.30
2019-02-22T14:53:44.678Z,19.10
2019-02-22T14:56:11.310Z,18.90
2019-02-22T14:58:37.871Z,18.10
2019-02-22T15:01:04.431Z,17.30
2019-02-22T15:03:31.090Z,17.20
2019-02-22T15:05:57.627Z,17.20
2019-02-22T15:08:24.206Z,16.90
2019-02-22T15:10:50.759Z,16.60
2019-02-22T15:13:17.509Z,16.20
2019-02-22T15:16:03.978Z,16.00
2019-02-22T15:18:30.974Z,15.70
2019-02-22T15:20:57.535Z,15.40
2019-02-22T15:23:24.206Z,15.20
2019-02-22T15:25:50.733Z,15.00
2019-02-22T15:28:17.293Z,14.90
2019-02-22T15:30:45.272Z,14.80
2019-02-22T15:33:12.088Z,14.80
2019-02-22T15:35:38.651Z,14.40
2019-02-22T15:38:05.336Z,14.50
2019-02-22T15:40:32.187Z,14.60
2019-02-22T15:42:58.862Z,14.60
2019-02-22T15:45:25.517Z,14.60
2019-02-22T15:47:52.321Z,14.60
2019-02-22T15:50:18.891Z,14.70
2019-02-22T15:52:46.752Z,14.70
2019-02-22T15:55:14.492Z,14.60
2019-02-22T15:57:41.162Z,14.60
2019-02-22T16:00:26.353Z,14.50
2019-02-22T16:02:52.998Z,14.50
2019-02-22T16:05:21.581Z,14.40
2019-02-22T16:07:48.230Z,14.40
2019-02-22T16:10:15.883Z,14.40
2019-02-22T16:12:42.678Z,14.30
2019-02-22T16:15:11.433Z,14.10
2019-02-22T16:17:38.129Z,14.10
2019-02-22T16:20:06.399Z,14.10
2019-02-22T16:22:33.052Z,13.50
2019-02-22T16:24:59.527Z,13.40
2019-02-22T16:27:26.087Z,13.40
2019-02-22T16:29:52.882Z,13.60
2019-02-22T16:32:19.441Z,13.50
2019-02-22T16:34:46.775Z,13.50
2019-02-22T16:37:13.688Z,13.30
2019-02-22T16:39:40.228Z,13.10
2019-02-22T16:42:06.762Z,12.90
2019-02-22T16:44:33.382Z,12.70
2019-02-22T16:47:00.033Z,12.40
2019-02-22T16:49:26.570Z,12.70
2019-02-22T16:51:53.239Z,12.60
2019-02-22T16:54:19.797Z,12.50
2019-02-22T16:56:46.377Z,12.30
2019-02-22T16:59:15.196Z,12.50
2019-02-22T17:01:41.982Z,12.70
2019-02-22T17:04:08.638Z,12.60
2019-02-22T17:06:35.550Z,12.60
2019-02-22T17:09:04.281Z,12.80
2019-02-22T17:11:32.819Z,12.80
2019-02-22T17:13:59.393Z,12.70
2019-02-22T17:16:25.978Z,12.50
2019-02-22T17:18:53.556Z,12.50
2019-02-22T17:21:20.207Z,12.30
2019-02-22T17:23:47.018Z,12.00
2019-02-22T17:26:13.837Z,11.90
2019-02-22T17:28:40.426Z,11.80
2019-02-22T17:31:06.983Z,11.80
2019-02-22T17:33:33.583Z,11.60
2019-02-22T17:36:00.177Z,11.40
2019-02-22T17:38:26.889Z,11.40
2019-02-22T17:40:53.515Z,11.30
2019-02-22T17:43:20.068Z,11.10
2019-02-22T17:45:46.646Z,11.10
2019-02-22T17:48:13.261Z,10.90
2019-02-22T17:50:39.857Z,10.80
2019-02-22T17:53:06.555Z,10.80
2019-02-22T17:55:33.225Z,10.70
2019-02-22T17:57:59.921Z,10.70
2019-02-22T18:00:26.569Z,10.60
2019-02-22T18:02:53.252Z,10.50
2019-02-22T18:05:19.914Z,10.40
2019-02-22T18:07:46.509Z,10.40
2019-02-22T18:10:13.106Z,10.40
2019-02-22T18:12:39.880Z,10.40
2019-02-22T18:15:10.249Z,10.30
2019-02-22T18:17:36.816Z,10.20
2019-02-22T18:20:07.923Z,10.30
2019-02-22T18:22:34.566Z,10.20
2019-02-22T18:25:01.129Z,10.20
2019-02-22T18:27:27.808Z,10.10
2019-02-22T18:29:54.356Z,10.00
2019-02-22T18:32:20.898Z,9.90
2019-02-22T18:34:47.477Z,9.90
2019-02-22T18:37:14.027Z,9.90
2019-02-22T18:39:40.719Z,9.90
2019-02-22T18:42:07.267Z,10.00
2019-02-22T18:44:33.915Z,10.00
2019-02-22T18:47:00.508Z,10.00
2019-02-22T18:49:27.113Z,10.00
2019-02-22T18:51:53.771Z,9.90
2019-02-22T18:54:20.354Z,9.90
2019-02-22T18:56:46.931Z,9.90
2019-02-22T18:59:13.559Z,9.90
2019-02-22T19:01:41.678Z,9.90
2019-02-22T19:04:08.315Z,9.70
2019-02-22T19:06:34.940Z,9.80
2019-02-22T19:09:01.624Z,9.80
2019-02-22T19:11:30.228Z,9.80
2019-02-22T19:13:56.805Z,9.80
2019-02-22T19:16:23.381Z,9.70
2019-02-22T19:18:49.967Z,9.70
2019-02-22T19:21:17.669Z,9.70
2019-02-22T19:23:44.492Z,9.60
2019-02-22T19:26:11.351Z,9.60
2019-02-22T19:28:38.905Z,9.50
2019-02-22T19:31:05.580Z,9.50
2019-02-22T19:33:32.254Z,9.50
2019-02-22T19:35:58.857Z,9.30
2019-02-22T19:38:25.516Z,9.30
2019-02-22T19:40:52.085Z,9.20
2019-02-22T19:43:18.642Z,9.30
2019-02-22T19:45:45.320Z,9.20
2019-02-22T19:48:11.932Z,9.10
2019-02-22T19:50:41.436Z,9.10
2019-02-22T19:53:07.902Z,8.90
2019-02-22T19:55:34.502Z,9.10
2019-02-22T19:58:01.109Z,9.00
2019-02-22T20:00:27.788Z,9.00
2019-02-22T20:02:54.473Z,8.80
2019-02-22T20:05:24.949Z,8.50
2019-02-22T20:07:51.719Z,8.20
2019-02-22T20:10:19.923Z,8.40
2019-02-22T20:12:46.714Z,8.50
2019-02-22T20:15:16.095Z,8.40
2019-02-22T20:17:53.283Z,8.30
2019-02-22T20:20:13.423Z,8.30
2019-02-22T20:22:40.076Z,8.20
2019-02-22T20:25:07.323Z,8.00
2019-02-22T20:27:34.084Z,7.80
2019-02-22T20:30:00.766Z,8.00
2019-02-22T20:32:27.677Z,8.10
2019-02-22T20:34:54.346Z,8.10
2019-02-22T20:37:20.989Z,8.00
2019-02-22T20:39:48.080Z,8.00
2019-02-22T20:42:14.733Z,8.10
2019-02-22T20:44:41.424Z,8.00
2019-02-22T20:47:08.036Z,7.90
2019-02-22T20:49:34.549Z,7.90
2019-02-22T20:52:01.240Z,7.70
2019-02-22T20:54:27.948Z,7.60
2019-02-22T20:56:55.017Z,7.60
2019-02-22T20:59:21.622Z,7.60
2019-02-22T21:01:50.926Z,7.60
2019-02-22T21:04:17.472Z,7.50
2019-02-22T21:06:44.111Z,7.50
2019-02-22T21:09:10.772Z,7.30
2019-02-22T21:11:37.310Z,7.30
2019-02-22T21:14:03.908Z,7.30
2019-02-22T21:16:30.469Z,7.30
2019-02-22T21:18:57.051Z,7.30
2019-02-22T21:21:23.730Z,7.10
2019-02-22T21:23:52.024Z,7.10
2019-02-22T21:26:18.641Z,7.00
2019-02-22T21:28:45.199Z,6.90
2019-02-22T21:31:11.785Z,6.80
2019-02-22T21:33:38.343Z,6.80
2019-02-22T21:36:04.875Z,6.70
2019-02-22T21:38:31.416Z,6.70
2019-02-22T21:40:58.962Z,6.80
2019-02-22T21:43:25.484Z,6.70
2019-02-22T21:45:52.058Z,6.60
2019-02-22T21:48:27.262Z,6.50
2019-02-22T21:50:48.134Z,6.50
2019-02-22T21:53:14.726Z,6.50
2019-02-22T21:55:41.302Z,6.40
2019-02-22T21:58:07.850Z,6.40
2019-02-22T22:00:34.404Z,6.30
2019-02-22T22:03:01.072Z,6.40
2019-02-22T22:05:27.627Z,6.30
2019-02-22T22:07:54.208Z,6.30
2019-02-22T22:10:20.888Z,6.30
2019-02-22T22:12:47.412Z,6.30
2019-02-22T22:15:14.660Z,6.20
2019-02-22T22:17:41.307Z,6.10
2019-02-22T22:20:08.567Z,6.10
2019-02-22T22:22:35.149Z,5.90
2019-02-22T22:25:02.980Z,6.00
2019-02-22T22:27:29.631Z,6.00
2019-02-22T22:29:56.176Z,5.90
2019-02-22T22:32:22.727Z,5.80
2019-02-22T22:34:49.313Z,5.80
2019-02-22T22:37:15.866Z,5.60
2019-02-22T22:39:42.422Z,5.60
2019-02-22T22:42:08.963Z,5.50
2019-02-22T22:44:35.535Z,5.40
2019-02-22T22:47:02.099Z,5.30
2019-02-22T22:49:28.623Z,5.10
2019-02-22T22:51:55.191Z,5.10
2019-02-22T22:54:21.747Z,5.10
2019-02-22T22:56:48.309Z,5.00
2019-02-22T22:59:14.862Z,4.90
2019-02-22T23:01:41.489Z,4.80
2019-02-22T23:04:08.151Z,4.80
2019-02-22T23:06:34.931Z,4.80
2019-02-22T23:09:01.464Z,4.70
2019-02-22T23:11:30.015Z,4.80
2019-02-22T23:13:56.659Z,4.60
2019-02-22T23:16:23.200Z,4.60
2019-02-22T23:19:01.367Z,4.50
2019-02-22T23:21:19.809Z,4.30
2019-02-22T23:23:46.383Z,4.40
2019-02-22T23:26:13.048Z,4.20
2019-02-22T23:28:39.709Z,4.10
2019-02-22T23:31:06.238Z,4.10
2019-02-22T23:33:32.801Z,4.20
2019-02-22T23:36:00.257Z,4.20
2019-02-22T23:38:27.047Z,4.00
2019-02-22T23:40:53.606Z,3.90
2019-02-22T23:43:20.166Z,4.00
2019-02-22T23:45:46.698Z,3.80
2019-02-22T23:48:13.245Z,3.70
2019-02-22T23:50:39.799Z,3.70
2019-02-22T23:53:06.355Z,3.80
2019-02-22T23:55:33.027Z,3.80
2019-02-22T23:57:59.619Z,3.60
